sensor_id;sensor_type;location;lat;lon;timestamp;P1;durP1;ratioP1;P2;durP2;ratioP2
13108;SDS011;6620;53.734;11.510;2022-09-12T00:00:02;1.07;;;0.30;;
13108;SDS011;6620;53.734;11.510;2022-09-12T00:02:27;0.38;;;0.38;;
13108;SDS011;6620;53.734;11.510;2022-09-12T00:04:52;1.30;;;0.30;;
13108;SDS011;6620;53.734;11.510;2022-09-12T00:07:17;0.30;;;0.30;;
13108;SDS011;6620;53.734;11.510;2022-09-12T00:09:43;0.40;;;0.40;;
13108;SDS011;6620;53.734;11.510;2022-09-12T00:12:08;0.93;;;0.87;;
13108;SDS011;6620;53.734;11.510;2022-09-12T00:14:33;0.57;;;0.40;;
13108;SDS011;6620;53.734;11.510;2022-09-12T00:16:58;1.45;;;0.40;;
13108;SDS011;6620;53.734;11.510;2022-09-12T00:19:24;0.70;;;0.25;;
13108;SDS011;6620;53.734;11.510;2022-09-12T00:21:50;0.63;;;0.30;;
13108;SDS011;6620;53.734;11.510;2022-09-12T00:24:15;1.10;;;0.40;;
13108;SDS011;6620;53.734;11.510;2022-09-12T00:26:40;1.55;;;0.40;;
13108;SDS011;6620;53.734;11.510;2022-09-12T00:29:05;0.40;;;0.30;;
13108;SDS011;6620;53.734;11.510;2022-09-12T00:31:31;0.50;;;0.50;;
13108;SDS011;6620;53.734;11.510;2022-09-12T00:33:56;0.30;;;0.30;;
13108;SDS011;6620;53.734;11.510;2022-09-12T00:36:23;0.57;;;0.35;;
13108;SDS011;6620;53.734;11.510;2022-09-12T00:38:48;0.95;;;0.50;;
13108;SDS011;6620;53.734;11.510;2022-09-12T00:41:15;0.60;;;0.60;;
13108;SDS011;6620;53.734;11.510;2022-09-12T00:43:42;2.78;;;0.80;;
13108;SDS011;6620;53.734;11.510;2022-09-12T00:46:12;0.70;;;0.70;;
13108;SDS011;6620;53.734;11.510;2022-09-12T00:48:41;1.65;;;0.50;;
13108;SDS011;6620;53.734;11.510;2022-09-12T00:51:08;1.83;;;1.00;;
13108;SDS011;6620;53.734;11.510;2022-09-12T00:53:33;0.70;;;0.70;;
13108;SDS011;6620;53.734;11.510;2022-09-12T00:55:59;1.30;;;0.70;;
13108;SDS011;6620;53.734;11.510;2022-09-12T00:58:28;0.68;;;0.68;;
13108;SDS011;6620;53.734;11.510;2022-09-12T01:00:54;0.65;;;0.65;;
13108;SDS011;6620;53.734;11.510;2022-09-12T01:03:21;0.82;;;0.63;;
13108;SDS011;6620;53.734;11.510;2022-09-12T01:06:04;1.23;;;0.63;;
13108;SDS011;6620;53.734;11.510;2022-09-12T01:08:32;0.40;;;0.40;;
13108;SDS011;6620;53.734;11.510;2022-09-12T01:10:57;1.50;;;0.55;;
13108;SDS011;6620;53.734;11.510;2022-09-12T01:13:23;0.60;;;0.60;;
13108;SDS011;6620;53.734;11.510;2022-09-12T01:15:48;0.90;;;0.60;;
13108;SDS011;6620;53.734;11.510;2022-09-12T01:28:55;0.40;;;0.40;;
13108;SDS011;6620;53.734;11.510;2022-09-12T01:33:59;0.32;;;0.32;;
13108;SDS011;6620;53.734;11.510;2022-09-12T01:39:03;0.52;;;0.52;;
13108;SDS011;6620;53.734;11.510;2022-09-12T01:41:42;0.30;;;0.30;;
13108;SDS011;6620;53.734;11.510;2022-09-12T01:44:18;0.40;;;0.40;;
13108;SDS011;6620;53.734;11.510;2022-09-12T01:46:58;2.28;;;0.43;;
13108;SDS011;6620;53.734;11.510;2022-09-12T01:49:29;1.13;;;0.30;;
13108;SDS011;6620;53.734;11.510;2022-09-12T01:54:33;1.05;;;0.30;;
13108;SDS011;6620;53.734;11.510;2022-09-12T01:57:01;0.20;;;0.20;;
13108;SDS011;6620;53.734;11.510;2022-09-12T01:59:35;0.20;;;0.20;;
13108;SDS011;6620;53.734;11.510;2022-09-12T02:04:48;0.25;;;0.25;;
13108;SDS011;6620;53.734;11.510;2022-09-12T02:07:20;0.75;;;0.50;;
13108;SDS011;6620;53.734;11.510;2022-09-12T02:09:51;3.15;;;0.40;;
13108;SDS011;6620;53.734;11.510;2022-09-12T02:12:20;0.68;;;0.45;;
13108;SDS011;6620;53.734;11.510;2022-09-12T02:14:50;1.77;;;0.35;;
13108;SDS011;6620;53.734;11.510;2022-09-12T02:17:21;0.40;;;0.40;;
13108;SDS011;6620;53.734;11.510;2022-09-12T02:22:31;0.40;;;0.30;;
13108;SDS011;6620;53.734;11.510;2022-09-12T02:24:59;0.40;;;0.40;;
13108;SDS011;6620;53.734;11.510;2022-09-12T02:27:27;0.40;;;0.40;;
13108;SDS011;6620;53.734;11.510;2022-09-12T02:29:54;0.40;;;0.40;;
13108;SDS011;6620;53.734;11.510;2022-09-12T02:37:20;0.30;;;0.30;;
13108;SDS011;6620;53.734;11.510;2022-09-12T02:39:50;0.70;;;0.40;;
13108;SDS011;6620;53.734;11.510;2022-09-12T02:42:15;0.63;;;0.40;;
13108;SDS011;6620;53.734;11.510;2022-09-12T02:44:41;0.50;;;0.50;;
13108;SDS011;6620;53.734;11.510;2022-09-12T02:47:10;0.60;;;0.60;;
13108;SDS011;6620;53.734;11.510;2022-09-12T02:49:38;0.47;;;0.47;;
13108;SDS011;6620;53.734;11.510;2022-09-12T02:52:03;0.60;;;0.60;;
13108;SDS011;6620;53.734;11.510;2022-09-12T02:54:28;0.40;;;0.38;;
13108;SDS011;6620;53.734;11.510;2022-09-12T02:56:54;0.50;;;0.50;;
13108;SDS011;6620;53.734;11.510;2022-09-12T02:59:20;0.67;;;0.40;;
13108;SDS011;6620;53.734;11.510;2022-09-12T03:01:55;0.47;;;0.47;;
13108;SDS011;6620;53.734;11.510;2022-09-12T03:06:51;0.40;;;0.40;;
13108;SDS011;6620;53.734;11.510;2022-09-12T03:14:50;1.10;;;0.50;;
13108;SDS011;6620;53.734;11.510;2022-09-12T03:17:38;0.52;;;0.52;;
13108;SDS011;6620;53.734;11.510;2022-09-12T03:20:09;1.13;;;0.57;;
13108;SDS011;6620;53.734;11.510;2022-09-12T03:22:40;1.90;;;0.55;;
13108;SDS011;6620;53.734;11.510;2022-09-12T03:25:12;1.30;;;0.50;;
13108;SDS011;6620;53.734;11.510;2022-09-12T03:27:40;0.50;;;0.50;;
13108;SDS011;6620;53.734;11.510;2022-09-12T03:30:07;1.77;;;0.65;;
13108;SDS011;6620;53.734;11.510;2022-09-12T03:32:39;1.83;;;0.52;;
13108;SDS011;6620;53.734;11.510;2022-09-12T03:35:04;0.68;;;0.47;;
13108;SDS011;6620;53.734;11.510;2022-09-12T03:37:30;1.75;;;0.43;;
13108;SDS011;6620;53.734;11.510;2022-09-12T03:39:55;0.50;;;0.50;;
13108;SDS011;6620;53.734;11.510;2022-09-12T03:42:20;2.33;;;0.57;;
13108;SDS011;6620;53.734;11.510;2022-09-12T03:44:45;1.20;;;0.50;;
13108;SDS011;6620;53.734;11.510;2022-09-12T03:47:10;0.47;;;0.37;;
13108;SDS011;6620;53.734;11.510;2022-09-12T03:49:36;1.17;;;0.60;;
13108;SDS011;6620;53.734;11.510;2022-09-12T03:52:01;0.60;;;0.60;;
13108;SDS011;6620;53.734;11.510;2022-09-12T03:54:26;3.13;;;0.85;;
13108;SDS011;6620;53.734;11.510;2022-09-12T03:56:52;0.70;;;0.70;;
13108;SDS011;6620;53.734;11.510;2022-09-12T03:59:17;0.70;;;0.70;;
13108;SDS011;6620;53.734;11.510;2022-09-12T04:01:42;0.40;;;0.40;;
13108;SDS011;6620;53.734;11.510;2022-09-12T04:04:07;0.60;;;0.60;;
13108;SDS011;6620;53.734;11.510;2022-09-12T04:06:32;0.70;;;0.70;;
13108;SDS011;6620;53.734;11.510;2022-09-12T04:08:58;0.77;;;0.77;;
13108;SDS011;6620;53.734;11.510;2022-09-12T04:11:23;0.43;;;0.43;;
13108;SDS011;6620;53.734;11.510;2022-09-12T04:13:48;0.55;;;0.55;;
13108;SDS011;6620;53.734;11.510;2022-09-12T04:16:14;4.82;;;0.50;;
13108;SDS011;6620;53.734;11.510;2022-09-12T04:18:39;0.80;;;0.80;;
13108;SDS011;6620;53.734;11.510;2022-09-12T04:21:05;0.40;;;0.40;;
13108;SDS011;6620;53.734;11.510;2022-09-12T04:23:31;0.52;;;0.40;;
13108;SDS011;6620;53.734;11.510;2022-09-12T04:25:56;0.43;;;0.40;;
13108;SDS011;6620;53.734;11.510;2022-09-12T04:28:22;3.30;;;0.73;;
13108;SDS011;6620;53.734;11.510;2022-09-12T04:30:48;0.73;;;0.60;;
13108;SDS011;6620;53.734;11.510;2022-09-12T04:33:13;1.85;;;0.55;;
13108;SDS011;6620;53.734;11.510;2022-09-12T04:35:39;0.63;;;0.63;;
13108;SDS011;6620;53.734;11.510;2022-09-12T04:38:05;0.63;;;0.40;;
13108;SDS011;6620;53.734;11.510;2022-09-12T04:40:30;0.60;;;0.60;;
13108;SDS011;6620;53.734;11.510;2022-09-12T04:42:55;0.75;;;0.75;;
13108;SDS011;6620;53.734;11.510;2022-09-12T04:45:21;2.15;;;0.60;;
13108;SDS011;6620;53.734;11.510;2022-09-12T04:47:46;0.65;;;0.43;;
13108;SDS011;6620;53.734;11.510;2022-09-12T04:50:11;0.67;;;0.67;;
13108;SDS011;6620;53.734;11.510;2022-09-12T04:52:38;3.03;;;0.80;;
13108;SDS011;6620;53.734;11.510;2022-09-12T04:55:04;1.23;;;0.60;;
13108;SDS011;6620;53.734;11.510;2022-09-12T04:57:29;1.38;;;0.60;;
13108;SDS011;6620;53.734;11.510;2022-09-12T04:59:54;1.23;;;0.80;;
13108;SDS011;6620;53.734;11.510;2022-09-12T05:02:19;0.85;;;0.85;;
13108;SDS011;6620;53.734;11.510;2022-09-12T05:04:45;1.17;;;0.45;;
13108;SDS011;6620;53.734;11.510;2022-09-12T05:07:11;0.60;;;0.60;;
13108;SDS011;6620;53.734;11.510;2022-09-12T05:09:36;0.68;;;0.68;;
13108;SDS011;6620;53.734;11.510;2022-09-12T05:12:01;1.33;;;0.80;;
13108;SDS011;6620;53.734;11.510;2022-09-12T05:14:26;3.00;;;0.88;;
13108;SDS011;6620;53.734;11.510;2022-09-12T05:16:52;0.70;;;0.63;;
13108;SDS011;6620;53.734;11.510;2022-09-12T05:19:17;2.33;;;0.80;;
13108;SDS011;6620;53.734;11.510;2022-09-12T05:21:42;0.77;;;0.77;;
13108;SDS011;6620;53.734;11.510;2022-09-12T05:24:08;0.70;;;0.70;;
13108;SDS011;6620;53.734;11.510;2022-09-12T05:26:33;0.70;;;0.70;;
13108;SDS011;6620;53.734;11.510;2022-09-12T05:28:59;0.68;;;0.68;;
13108;SDS011;6620;53.734;11.510;2022-09-12T05:31:24;1.98;;;0.85;;
13108;SDS011;6620;53.734;11.510;2022-09-12T05:33:51;0.90;;;0.90;;
13108;SDS011;6620;53.734;11.510;2022-09-12T05:36:17;0.77;;;0.77;;
13108;SDS011;6620;53.734;11.510;2022-09-12T05:38:43;1.23;;;0.80;;
13108;SDS011;6620;53.734;11.510;2022-09-12T05:43:37;0.90;;;0.90;;
13108;SDS011;6620;53.734;11.510;2022-09-12T05:46:07;0.80;;;0.70;;
13108;SDS011;6620;53.734;11.510;2022-09-12T05:48:33;0.82;;;0.82;;
13108;SDS011;6620;53.734;11.510;2022-09-12T05:50:59;1.25;;;1.20;;
13108;SDS011;6620;53.734;11.510;2022-09-12T05:53:26;1.80;;;1.00;;
13108;SDS011;6620;53.734;11.510;2022-09-12T05:56:00;2.58;;;0.95;;
13108;SDS011;6620;53.734;11.510;2022-09-12T05:58:25;0.90;;;0.80;;
13108;SDS011;6620;53.734;11.510;2022-09-12T06:00:50;1.58;;;1.25;;
13108;SDS011;6620;53.734;11.510;2022-09-12T06:03:15;1.00;;;1.00;;
13108;SDS011;6620;53.734;11.510;2022-09-12T06:05:41;1.00;;;1.00;;
13108;SDS011;6620;53.734;11.510;2022-09-12T06:08:06;0.90;;;0.90;;
13108;SDS011;6620;53.734;11.510;2022-09-12T06:10:31;1.00;;;1.00;;
13108;SDS011;6620;53.734;11.510;2022-09-12T06:12:59;1.17;;;1.15;;
13108;SDS011;6620;53.734;11.510;2022-09-12T06:15:24;1.70;;;0.67;;
13108;SDS011;6620;53.734;11.510;2022-09-12T06:17:49;2.83;;;0.80;;
13108;SDS011;6620;53.734;11.510;2022-09-12T06:20:15;1.23;;;1.13;;
13108;SDS011;6620;53.734;11.510;2022-09-12T06:22:40;2.35;;;1.40;;
13108;SDS011;6620;53.734;11.510;2022-09-12T06:25:06;1.92;;;1.00;;
13108;SDS011;6620;53.734;11.510;2022-09-12T06:27:31;1.00;;;1.00;;
13108;SDS011;6620;53.734;11.510;2022-09-12T06:29:56;2.10;;;1.20;;
13108;SDS011;6620;53.734;11.510;2022-09-12T06:32:21;2.35;;;1.50;;
13108;SDS011;6620;53.734;11.510;2022-09-12T06:34:46;1.30;;;1.20;;
13108;SDS011;6620;53.734;11.510;2022-09-12T06:37:12;1.60;;;1.50;;
13108;SDS011;6620;53.734;11.510;2022-09-12T06:39:37;2.67;;;1.70;;
13108;SDS011;6620;53.734;11.510;2022-09-12T06:42:03;1.60;;;1.42;;
13108;SDS011;6620;53.734;11.510;2022-09-12T06:44:28;1.27;;;1.27;;
13108;SDS011;6620;53.734;11.510;2022-09-12T06:46:53;1.38;;;1.33;;
13108;SDS011;6620;53.734;11.510;2022-09-12T06:49:19;3.90;;;1.75;;
13108;SDS011;6620;53.734;11.510;2022-09-12T06:51:44;2.53;;;1.70;;
13108;SDS011;6620;53.734;11.510;2022-09-12T06:54:12;3.13;;;1.40;;
13108;SDS011;6620;53.734;11.510;2022-09-12T06:56:38;1.63;;;1.52;;
13108;SDS011;6620;53.734;11.510;2022-09-12T06:59:03;2.40;;;1.60;;
13108;SDS011;6620;53.734;11.510;2022-09-12T07:01:29;2.93;;;2.17;;
13108;SDS011;6620;53.734;11.510;2022-09-12T07:03:58;1.80;;;1.67;;
13108;SDS011;6620;53.734;11.510;2022-09-12T07:06:25;2.67;;;1.88;;
13108;SDS011;6620;53.734;11.510;2022-09-12T07:08:56;2.13;;;2.00;;
13108;SDS011;6620;53.734;11.510;2022-09-12T07:11:22;2.00;;;1.90;;
13108;SDS011;6620;53.734;11.510;2022-09-12T07:13:48;1.75;;;1.65;;
13108;SDS011;6620;53.734;11.510;2022-09-12T07:16:14;3.67;;;1.63;;
13108;SDS011;6620;53.734;11.510;2022-09-12T07:18:39;1.38;;;1.27;;
13108;SDS011;6620;53.734;11.510;2022-09-12T07:21:06;4.40;;;2.00;;
13108;SDS011;6620;53.734;11.510;2022-09-12T07:23:31;1.60;;;1.60;;
13108;SDS011;6620;53.734;11.510;2022-09-12T07:25:57;1.67;;;1.57;;
13108;SDS011;6620;53.734;11.510;2022-09-12T07:28:26;2.53;;;1.95;;
13108;SDS011;6620;53.734;11.510;2022-09-12T07:30:52;1.77;;;1.67;;
13108;SDS011;6620;53.734;11.510;2022-09-12T07:33:21;1.92;;;1.83;;
13108;SDS011;6620;53.734;11.510;2022-09-12T07:35:47;1.83;;;1.73;;
13108;SDS011;6620;53.734;11.510;2022-09-12T07:38:12;2.67;;;2.45;;
13108;SDS011;6620;53.734;11.510;2022-09-12T07:40:37;1.70;;;1.60;;
13108;SDS011;6620;53.734;11.510;2022-09-12T07:43:02;3.63;;;3.35;;
13108;SDS011;6620;53.734;11.510;2022-09-12T07:45:28;2.03;;;1.83;;
13108;SDS011;6620;53.734;11.510;2022-09-12T07:47:53;1.88;;;1.75;;
13108;SDS011;6620;53.734;11.510;2022-09-12T07:50:19;6.05;;;1.75;;
13108;SDS011;6620;53.734;11.510;2022-09-12T07:52:44;10.60;;;2.10;;
13108;SDS011;6620;53.734;11.510;2022-09-12T07:55:09;8.93;;;1.60;;
13108;SDS011;6620;53.734;11.510;2022-09-12T07:57:34;4.33;;;1.80;;
13108;SDS011;6620;53.734;11.510;2022-09-12T07:59:59;4.30;;;1.90;;
13108;SDS011;6620;53.734;11.510;2022-09-12T08:02:25;2.80;;;1.63;;
13108;SDS011;6620;53.734;11.510;2022-09-12T08:04:50;3.60;;;1.63;;
13108;SDS011;6620;53.734;11.510;2022-09-12T08:07:16;2.30;;;1.75;;
13108;SDS011;6620;53.734;11.510;2022-09-12T08:09:43;2.22;;;2.05;;
13108;SDS011;6620;53.734;11.510;2022-09-12T08:12:08;1.77;;;1.48;;
13108;SDS011;6620;53.734;11.510;2022-09-12T08:14:34;1.83;;;1.50;;
13108;SDS011;6620;53.734;11.510;2022-09-12T08:16:59;2.53;;;1.77;;
13108;SDS011;6620;53.734;11.510;2022-09-12T08:19:24;3.05;;;2.00;;
13108;SDS011;6620;53.734;11.510;2022-09-12T08:21:50;1.48;;;1.38;;
13108;SDS011;6620;53.734;11.510;2022-09-12T08:24:15;2.77;;;1.50;;
13108;SDS011;6620;53.734;11.510;2022-09-12T08:26:40;1.88;;;1.52;;
13108;SDS011;6620;53.734;11.510;2022-09-12T08:29:06;2.58;;;1.48;;
13108;SDS011;6620;53.734;11.510;2022-09-12T08:31:32;1.98;;;1.58;;
13108;SDS011;6620;53.734;11.510;2022-09-12T08:34:00;1.88;;;1.33;;
13108;SDS011;6620;53.734;11.510;2022-09-12T08:36:26;2.67;;;1.45;;
13108;SDS011;6620;53.734;11.510;2022-09-12T08:38:55;2.20;;;1.50;;
13108;SDS011;6620;53.734;11.510;2022-09-12T08:46:28;1.80;;;1.10;;
13108;SDS011;6620;53.734;11.510;2022-09-12T08:48:56;2.17;;;1.08;;
13108;SDS011;6620;53.734;11.510;2022-09-12T08:51:22;4.65;;;1.52;;
13108;SDS011;6620;53.734;11.510;2022-09-12T08:53:48;1.10;;;0.98;;
13108;SDS011;6620;53.734;11.510;2022-09-12T08:56:15;4.00;;;1.10;;
13108;SDS011;6620;53.734;11.510;2022-09-12T08:58:42;0.93;;;0.88;;
13108;SDS011;6620;53.734;11.510;2022-09-12T09:08:46;2.60;;;0.75;;
13108;SDS011;6620;53.734;11.510;2022-09-12T09:13:52;1.55;;;0.70;;
13108;SDS011;6620;53.734;11.510;2022-09-12T09:16:40;0.60;;;0.60;;
13108;SDS011;6620;53.734;11.510;2022-09-12T09:19:17;2.95;;;0.70;;
13108;SDS011;6620;53.734;11.510;2022-09-12T09:21:50;1.02;;;0.55;;
13108;SDS011;6620;53.734;11.510;2022-09-12T09:24:18;1.65;;;0.60;;
13108;SDS011;6620;53.734;11.510;2022-09-12T09:29:13;1.27;;;0.67;;
13108;SDS011;6620;53.734;11.510;2022-09-12T09:31:39;0.88;;;0.50;;
13108;SDS011;6620;53.734;11.510;2022-09-12T09:34:08;0.75;;;0.52;;
13108;SDS011;6620;53.734;11.510;2022-09-12T09:39:08;1.83;;;0.63;;
13108;SDS011;6620;53.734;11.510;2022-09-12T09:44:09;1.45;;;1.00;;
13108;SDS011;6620;53.734;11.510;2022-09-12T09:46:34;0.60;;;0.60;;
13108;SDS011;6620;53.734;11.510;2022-09-12T09:48:59;1.00;;;0.82;;
13108;SDS011;6620;53.734;11.510;2022-09-12T09:51:28;1.23;;;0.60;;
13108;SDS011;6620;53.734;11.510;2022-09-12T09:53:57;1.25;;;0.70;;
13108;SDS011;6620;53.734;11.510;2022-09-12T09:56:32;0.70;;;0.70;;
13108;SDS011;6620;53.734;11.510;2022-09-12T09:59:08;1.75;;;0.60;;
13108;SDS011;6620;53.734;11.510;2022-09-12T10:01:34;0.73;;;0.73;;
13108;SDS011;6620;53.734;11.510;2022-09-12T10:03:59;3.78;;;0.80;;
13108;SDS011;6620;53.734;11.510;2022-09-12T10:06:25;1.75;;;0.82;;
13108;SDS011;6620;53.734;11.510;2022-09-12T10:09:03;0.45;;;0.45;;
13108;SDS011;6620;53.734;11.510;2022-09-12T10:11:28;1.30;;;0.90;;
13108;SDS011;6620;53.734;11.510;2022-09-12T10:13:55;0.73;;;0.65;;
13108;SDS011;6620;53.734;11.510;2022-09-12T10:18:46;0.70;;;0.70;;
13108;SDS011;6620;53.734;11.510;2022-09-12T10:21:33;1.27;;;0.70;;
13108;SDS011;6620;53.734;11.510;2022-09-12T10:26:41;0.70;;;0.52;;
13108;SDS011;6620;53.734;11.510;2022-09-12T10:29:12;1.20;;;0.85;;
13108;SDS011;6620;53.734;11.510;2022-09-12T10:32:12;2.13;;;1.27;;
13108;SDS011;6620;53.734;11.510;2022-09-12T10:34:35;2.42;;;1.10;;
13108;SDS011;6620;53.734;11.510;2022-09-12T10:37:05;0.93;;;0.50;;
13108;SDS011;6620;53.734;11.510;2022-09-12T10:39:31;1.08;;;0.70;;
13108;SDS011;6620;53.734;11.510;2022-09-12T10:41:58;2.13;;;0.50;;
13108;SDS011;6620;53.734;11.510;2022-09-12T10:44:24;0.88;;;0.70;;
13108;SDS011;6620;53.734;11.510;2022-09-12T10:46:50;1.02;;;0.80;;
13108;SDS011;6620;53.734;11.510;2022-09-12T10:51:45;0.63;;;0.50;;
13108;SDS011;6620;53.734;11.510;2022-09-12T10:54:10;4.22;;;0.50;;
13108;SDS011;6620;53.734;11.510;2022-09-12T10:56:46;0.60;;;0.50;;
13108;SDS011;6620;53.734;11.510;2022-09-12T10:59:20;1.55;;;0.60;;
13108;SDS011;6620;53.734;11.510;2022-09-12T11:01:49;1.95;;;0.60;;
13108;SDS011;6620;53.734;11.510;2022-09-12T11:14:28;2.67;;;0.40;;
13108;SDS011;6620;53.734;11.510;2022-09-12T11:22:25;0.98;;;0.52;;
13108;SDS011;6620;53.734;11.510;2022-09-12T11:25:03;0.65;;;0.65;;
13108;SDS011;6620;53.734;11.510;2022-09-12T11:42:44;1.38;;;0.60;;
13108;SDS011;6620;53.734;11.510;2022-09-12T11:45:21;1.75;;;0.43;;
13108;SDS011;6620;53.734;11.510;2022-09-12T11:47:49;1.65;;;0.57;;
13108;SDS011;6620;53.734;11.510;2022-09-12T11:50:20;0.60;;;0.60;;
13108;SDS011;6620;53.734;11.510;2022-09-12T11:52:47;1.80;;;0.50;;
13108;SDS011;6620;53.734;11.510;2022-09-12T11:55:17;1.42;;;0.50;;
13108;SDS011;6620;53.734;11.510;2022-09-12T12:00:21;3.42;;;0.93;;
13108;SDS011;6620;53.734;11.510;2022-09-12T12:05:19;3.78;;;0.70;;
13108;SDS011;6620;53.734;11.510;2022-09-12T12:07:53;3.70;;;0.60;;
13108;SDS011;6620;53.734;11.510;2022-09-12T12:12:48;1.00;;;0.68;;
13108;SDS011;6620;53.734;11.510;2022-09-12T12:15:13;1.20;;;0.50;;
13108;SDS011;6620;53.734;11.510;2022-09-12T12:17:40;1.00;;;0.50;;
13108;SDS011;6620;53.734;11.510;2022-09-12T12:20:05;0.28;;;0.28;;
13108;SDS011;6620;53.734;11.510;2022-09-12T12:22:33;0.40;;;0.40;;
13108;SDS011;6620;53.734;11.510;2022-09-12T12:25:01;2.25;;;0.60;;
13108;SDS011;6620;53.734;11.510;2022-09-12T12:27:46;2.90;;;0.38;;
13108;SDS011;6620;53.734;11.510;2022-09-12T12:32:58;1.38;;;0.68;;
13108;SDS011;6620;53.734;11.510;2022-09-12T12:35:40;1.55;;;0.50;;
13108;SDS011;6620;53.734;11.510;2022-09-12T12:38:25;0.47;;;0.47;;
13108;SDS011;6620;53.734;11.510;2022-09-12T12:40:50;0.47;;;0.47;;
13108;SDS011;6620;53.734;11.510;2022-09-12T12:43:27;0.30;;;0.30;;
13108;SDS011;6620;53.734;11.510;2022-09-12T12:46:00;1.58;;;0.60;;
13108;SDS011;6620;53.734;11.510;2022-09-12T12:48:25;1.17;;;0.50;;
13108;SDS011;6620;53.734;11.510;2022-09-12T12:50:53;0.95;;;0.50;;
13108;SDS011;6620;53.734;11.510;2022-09-12T13:00:59;1.57;;;0.50;;
13108;SDS011;6620;53.734;11.510;2022-09-12T13:03:27;0.80;;;0.75;;
13108;SDS011;6620;53.734;11.510;2022-09-12T13:05:56;1.75;;;0.60;;
13108;SDS011;6620;53.734;11.510;2022-09-12T13:08:42;1.27;;;0.60;;
13108;SDS011;6620;53.734;11.510;2022-09-12T13:11:15;2.38;;;0.40;;
13108;SDS011;6620;53.734;11.510;2022-09-12T13:16:07;1.07;;;0.60;;
13108;SDS011;6620;53.734;11.510;2022-09-12T13:18:44;0.93;;;0.70;;
13108;SDS011;6620;53.734;11.510;2022-09-12T13:21:17;1.13;;;0.50;;
13108;SDS011;6620;53.734;11.510;2022-09-12T13:23:43;1.58;;;0.63;;
13108;SDS011;6620;53.734;11.510;2022-09-12T13:26:13;2.00;;;0.63;;
13108;SDS011;6620;53.734;11.510;2022-09-12T13:28:38;1.15;;;0.75;;
13108;SDS011;6620;53.734;11.510;2022-09-12T13:31:10;1.27;;;0.70;;
13108;SDS011;6620;53.734;11.510;2022-09-12T13:33:36;1.30;;;0.73;;
13108;SDS011;6620;53.734;11.510;2022-09-12T13:38:50;2.53;;;1.35;;
13108;SDS011;6620;53.734;11.510;2022-09-12T13:44:01;1.70;;;0.63;;
13108;SDS011;6620;53.734;11.510;2022-09-12T13:46:29;3.75;;;0.75;;
13108;SDS011;6620;53.734;11.510;2022-09-12T13:48:55;1.40;;;0.90;;
13108;SDS011;6620;53.734;11.510;2022-09-12T13:51:28;3.42;;;0.50;;
13108;SDS011;6620;53.734;11.510;2022-09-12T13:53:55;4.35;;;0.93;;
13108;SDS011;6620;53.734;11.510;2022-09-12T13:56:22;1.98;;;0.68;;
13108;SDS011;6620;53.734;11.510;2022-09-12T13:58:51;1.45;;;0.80;;
13108;SDS011;6620;53.734;11.510;2022-09-12T14:01:17;2.00;;;0.93;;
13108;SDS011;6620;53.734;11.510;2022-09-12T14:03:47;4.78;;;0.73;;
13108;SDS011;6620;53.734;11.510;2022-09-12T14:06:51;0.70;;;0.70;;
13108;SDS011;6620;53.734;11.510;2022-09-12T14:09:24;1.75;;;0.50;;
13108;SDS011;6620;53.734;11.510;2022-09-12T14:11:50;1.58;;;0.82;;
13108;SDS011;6620;53.734;11.510;2022-09-12T14:14:26;0.82;;;0.57;;
13108;SDS011;6620;53.734;11.510;2022-09-12T14:16:53;1.00;;;0.65;;
13108;SDS011;6620;53.734;11.510;2022-09-12T14:19:19;1.05;;;0.73;;
13108;SDS011;6620;53.734;11.510;2022-09-12T14:21:45;0.75;;;0.55;;
13108;SDS011;6620;53.734;11.510;2022-09-12T14:24:11;0.88;;;0.65;;
13108;SDS011;6620;53.734;11.510;2022-09-12T14:26:38;3.83;;;0.85;;
13108;SDS011;6620;53.734;11.510;2022-09-12T14:29:05;1.30;;;0.77;;
13108;SDS011;6620;53.734;11.510;2022-09-12T14:31:33;1.25;;;0.77;;
13108;SDS011;6620;53.734;11.510;2022-09-12T14:34:09;0.88;;;0.50;;
13108;SDS011;6620;53.734;11.510;2022-09-12T14:39:51;2.60;;;0.50;;
13108;SDS011;6620;53.734;11.510;2022-09-12T14:41:58;0.70;;;0.50;;
13108;SDS011;6620;53.734;11.510;2022-09-12T14:44:25;0.68;;;0.68;;
13108;SDS011;6620;53.734;11.510;2022-09-12T14:46:51;0.88;;;0.50;;
13108;SDS011;6620;53.734;11.510;2022-09-12T14:49:32;0.50;;;0.50;;
13108;SDS011;6620;53.734;11.510;2022-09-12T14:51:59;1.17;;;0.50;;
13108;SDS011;6620;53.734;11.510;2022-09-12T14:56:55;1.15;;;0.50;;
13108;SDS011;6620;53.734;11.510;2022-09-12T15:01:48;0.55;;;0.38;;
13108;SDS011;6620;53.734;11.510;2022-09-12T15:04:35;0.67;;;0.50;;
13108;SDS011;6620;53.734;11.510;2022-09-12T15:06:59;1.10;;;0.63;;
13108;SDS011;6620;53.734;11.510;2022-09-12T15:09:24;0.57;;;0.50;;
13108;SDS011;6620;53.734;11.510;2022-09-12T15:11:49;2.33;;;0.47;;
13108;SDS011;6620;53.734;11.510;2022-09-12T15:14:14;1.17;;;0.90;;
13108;SDS011;6620;53.734;11.510;2022-09-12T15:16:40;2.22;;;0.65;;
13108;SDS011;6620;53.734;11.510;2022-09-12T15:19:05;0.53;;;0.53;;
13108;SDS011;6620;53.734;11.510;2022-09-12T15:21:31;1.20;;;0.68;;
13108;SDS011;6620;53.734;11.510;2022-09-12T15:23:56;0.80;;;0.80;;
13108;SDS011;6620;53.734;11.510;2022-09-12T15:26:22;3.33;;;0.70;;
13108;SDS011;6620;53.734;11.510;2022-09-12T15:28:48;1.45;;;0.68;;
13108;SDS011;6620;53.734;11.510;2022-09-12T15:33:48;0.55;;;0.47;;
13108;SDS011;6620;53.734;11.510;2022-09-12T15:36:16;0.70;;;0.60;;
13108;SDS011;6620;53.734;11.510;2022-09-12T15:38:42;0.50;;;0.50;;
13108;SDS011;6620;53.734;11.510;2022-09-12T15:41:09;0.68;;;0.55;;
13108;SDS011;6620;53.734;11.510;2022-09-12T15:43:34;1.83;;;0.68;;
13108;SDS011;6620;53.734;11.510;2022-09-12T15:46:00;0.70;;;0.70;;
13108;SDS011;6620;53.734;11.510;2022-09-12T15:48:28;0.80;;;0.55;;
13108;SDS011;6620;53.734;11.510;2022-09-12T15:50:53;1.73;;;0.77;;
13108;SDS011;6620;53.734;11.510;2022-09-12T15:53:19;2.90;;;0.70;;
13108;SDS011;6620;53.734;11.510;2022-09-12T15:55:44;12.27;;;1.33;;
13108;SDS011;6620;53.734;11.510;2022-09-12T15:58:10;4.97;;;0.60;;
13108;SDS011;6620;53.734;11.510;2022-09-12T16:00:35;1.88;;;0.70;;
13108;SDS011;6620;53.734;11.510;2022-09-12T16:03:00;3.67;;;1.40;;
13108;SDS011;6620;53.734;11.510;2022-09-12T16:05:25;5.37;;;1.00;;
13108;SDS011;6620;53.734;11.510;2022-09-12T16:07:51;1.30;;;0.77;;
13108;SDS011;6620;53.734;11.510;2022-09-12T16:10:18;3.05;;;0.85;;
13108;SDS011;6620;53.734;11.510;2022-09-12T16:12:44;0.82;;;0.80;;
13108;SDS011;6620;53.734;11.510;2022-09-12T16:15:14;3.25;;;0.80;;
13108;SDS011;6620;53.734;11.510;2022-09-12T16:17:39;3.25;;;0.75;;
13108;SDS011;6620;53.734;11.510;2022-09-12T16:20:05;0.90;;;0.75;;
13108;SDS011;6620;53.734;11.510;2022-09-12T16:22:30;5.68;;;1.23;;
13108;SDS011;6620;53.734;11.510;2022-09-12T16:24:56;8.18;;;0.80;;
13108;SDS011;6620;53.734;11.510;2022-09-12T16:27:21;70.80;;;5.90;;
13108;SDS011;6620;53.734;11.510;2022-09-12T16:29:46;106.57;;;6.70;;
13108;SDS011;6620;53.734;11.510;2022-09-12T16:32:11;28.27;;;2.58;;
13108;SDS011;6620;53.734;11.510;2022-09-12T16:34:37;30.67;;;1.87;;
13108;SDS011;6620;53.734;11.510;2022-09-12T16:37:02;22.60;;;2.30;;
13108;SDS011;6620;53.734;11.510;2022-09-12T16:39:27;14.60;;;1.52;;
13108;SDS011;6620;53.734;11.510;2022-09-12T16:41:52;10.53;;;1.47;;
13108;SDS011;6620;53.734;11.510;2022-09-12T16:44:17;13.53;;;1.63;;
13108;SDS011;6620;53.734;11.510;2022-09-12T16:46:43;12.85;;;1.08;;
13108;SDS011;6620;53.734;11.510;2022-09-12T16:49:08;8.97;;;1.30;;
13108;SDS011;6620;53.734;11.510;2022-09-12T16:51:33;9.73;;;1.75;;
13108;SDS011;6620;53.734;11.510;2022-09-12T16:54:02;11.32;;;1.20;;
13108;SDS011;6620;53.734;11.510;2022-09-12T16:56:27;7.30;;;1.10;;
13108;SDS011;6620;53.734;11.510;2022-09-12T16:58:53;9.10;;;1.73;;
13108;SDS011;6620;53.734;11.510;2022-09-12T17:01:19;3.20;;;1.15;;
13108;SDS011;6620;53.734;11.510;2022-09-12T17:03:45;4.75;;;0.70;;
13108;SDS011;6620;53.734;11.510;2022-09-12T17:06:11;2.72;;;1.00;;